createdAt,value
2018-06-16T00:01:38.207Z,95493.00
2018-06-16T00:04:08.411Z,95481.00
2018-06-16T00:06:37.826Z,95486.00
2018-06-16T00:09:09.448Z,95476.00
2018-06-16T00:11:39.489Z,95481.00
2018-06-16T00:14:09.538Z,95475.00
2018-06-16T00:16:38.944Z,95469.00
2018-06-16T00:19:09.583Z,95481.00
2018-06-16T00:21:39.042Z,95477.00
2018-06-16T00:24:08.386Z,95475.00
2018-06-16T00:26:37.748Z,95470.00
2018-06-16T00:29:07.899Z,95473.00
2018-06-16T00:31:37.263Z,95475.00
2018-06-16T00:34:06.707Z,95466.00
2018-06-16T00:36:36.053Z,95472.00
2018-06-16T00:39:08.870Z,95466.00
2018-06-16T00:41:38.336Z,95470.00
2018-06-16T00:44:07.875Z,95464.00
2018-06-16T00:46:37.741Z,95468.00
2018-06-16T00:49:07.336Z,95464.00
2018-06-16T00:51:37.229Z,95466.00
2018-06-16T00:54:06.832Z,95469.00
2018-06-16T00:56:36.203Z,95470.00
2018-06-16T00:59:05.537Z,95468.00
2018-06-16T01:01:35.607Z,95463.00
2018-06-16T01:04:04.968Z,95463.00
2018-06-16T01:06:34.417Z,95462.00
2018-06-16T01:09:04.412Z,95461.00
2018-06-16T01:11:33.845Z,95460.00
2018-06-16T01:14:03.344Z,95453.00
2018-06-16T01:16:33.290Z,95452.00
2018-06-16T01:19:02.737Z,95454.00
2018-06-16T01:21:32.063Z,95451.00
2018-06-16T01:24:01.390Z,95443.00
2018-06-16T01:26:30.764Z,95445.00
2018-06-16T01:28:59.864Z,95448.00
2018-06-16T01:31:28.915Z,95439.00
2018-06-16T01:33:58.262Z,95441.00
2018-06-16T01:36:28.130Z,95440.00
2018-06-16T01:38:57.632Z,95438.00
2018-06-16T01:41:27.625Z,95434.00
2018-06-16T01:43:57.949Z,95434.00
2018-06-16T01:46:27.239Z,95430.00
2018-06-16T01:48:56.609Z,95419.00
2018-06-16T01:51:26.012Z,95412.00
2018-06-16T01:53:55.591Z,95417.00
2018-06-16T01:56:25.503Z,95419.00
2018-06-16T01:58:54.896Z,95419.00
2018-06-16T02:01:24.183Z,95429.00
2018-06-16T02:03:53.998Z,95427.00
2018-06-16T02:06:23.297Z,95432.00
2018-06-16T02:08:52.781Z,95432.00
2018-06-16T02:11:22.147Z,95429.00
2018-06-16T02:13:52.473Z,95424.00
2018-06-16T02:16:21.832Z,95420.00
2018-06-16T02:18:52.008Z,95416.00
2018-06-16T02:21:21.038Z,95414.00
2018-06-16T02:23:50.453Z,95401.00
2018-06-16T02:26:20.326Z,95406.00
2018-06-16T02:28:49.744Z,95406.00
2018-06-16T02:31:19.142Z,95401.00
2018-06-16T02:33:48.538Z,95409.00
2018-06-16T02:36:17.915Z,95402.00
2018-06-16T02:38:47.835Z,95408.00
2018-06-16T02:41:17.182Z,95403.00
2018-06-16T02:43:46.517Z,95404.00
2018-06-16T02:46:16.298Z,95405.00
2018-06-16T02:48:45.616Z,95396.00
2018-06-16T02:51:15.001Z,95398.00
2018-06-16T02:53:44.334Z,95400.00
2018-06-16T02:56:13.692Z,95392.00
2018-06-16T02:58:43.067Z,95402.00
2018-06-16T03:01:12.416Z,95404.00
2018-06-16T03:03:41.822Z,95409.00
2018-06-16T03:06:11.207Z,95406.00
2018-06-16T03:08:40.727Z,95402.00
2018-06-16T03:11:10.178Z,95398.00
2018-06-16T03:13:39.759Z,95399.00
2018-06-16T03:16:09.116Z,95394.00
2018-06-16T03:18:38.509Z,95394.00
2018-06-16T03:21:07.891Z,95400.00
2018-06-16T03:23:37.341Z,95402.00
2018-06-16T03:26:06.675Z,95400.00
2018-06-16T03:28:36.073Z,95402.00
2018-06-16T03:31:06.614Z,95404.00
2018-06-16T03:33:36.802Z,95404.00
2018-06-16T03:36:06.136Z,95413.00
2018-06-16T03:38:35.513Z,95411.00
2018-06-16T03:41:04.864Z,95409.00
2018-06-16T03:43:34.832Z,95410.00
2018-06-16T03:46:04.691Z,95405.00
2018-06-16T03:48:34.149Z,95399.00
2018-06-16T03:51:03.537Z,95410.00
2018-06-16T03:53:32.882Z,95407.00
2018-06-16T03:56:02.376Z,95411.00
2018-06-16T03:58:31.836Z,95408.00
2018-06-16T04:01:01.154Z,95414.00
2018-06-16T04:03:31.046Z,95410.00
2018-06-16T04:06:00.495Z,95409.00
2018-06-16T04:08:29.831Z,95418.00
2018-06-16T04:10:59.746Z,95426.00
2018-06-16T04:13:29.843Z,95420.00
2018-06-16T04:15:59.145Z,95412.00
2018-06-16T04:18:28.244Z,95424.00
2018-06-16T04:20:57.314Z,95428.00
2018-06-16T04:23:27.379Z,95418.00
2018-06-16T04:25:56.899Z,95419.00
2018-06-16T04:28:26.243Z,95418.00
2018-06-16T04:30:55.663Z,95416.00
2018-06-16T04:33:25.025Z,95427.00
2018-06-16T04:35:54.545Z,95422.00
2018-06-16T04:38:24.071Z,95420.00
2018-06-16T04:40:53.406Z,95422.00
2018-06-16T04:43:22.752Z,95423.00
2018-06-16T04:45:52.056Z,95419.00
2018-06-16T04:48:21.426Z,95434.00
2018-06-16T04:50:51.294Z,95430.00
2018-06-16T04:53:20.620Z,95426.00
2018-06-16T04:55:49.924Z,95421.00
2018-06-16T04:58:19.335Z,95425.00
2018-06-16T05:00:48.672Z,95423.00
2018-06-16T05:03:18.213Z,95432.00
2018-06-16T05:05:47.555Z,95419.00
2018-06-16T05:08:17.011Z,95429.00
2018-06-16T05:10:46.320Z,95429.00
2018-06-16T05:13:15.762Z,95434.00
2018-06-16T05:15:45.058Z,95427.00
2018-06-16T05:18:14.485Z,95425.00
2018-06-16T05:20:43.794Z,95435.00
2018-06-16T05:23:13.090Z,95423.00
2018-06-16T05:25:42.588Z,95422.00
2018-06-16T05:28:12.382Z,95426.00
2018-06-16T05:30:41.706Z,95429.00
2018-06-16T05:33:11.245Z,95436.00
2018-06-16T05:35:41.344Z,95418.00
2018-06-16T05:38:11.309Z,95426.00
2018-06-16T05:40:40.643Z,95417.00
2018-06-16T05:43:09.969Z,95416.00
2018-06-16T05:45:39.351Z,95415.00
2018-06-16T05:48:08.787Z,95420.00
2018-06-16T05:50:37.793Z,95422.00
2018-06-16T05:53:07.189Z,95410.00
2018-06-16T05:55:36.638Z,95414.00
2018-06-16T05:58:05.996Z,95415.00
2018-06-16T06:00:35.375Z,95418.00
2018-06-16T06:03:04.832Z,95420.00
2018-06-16T06:05:34.887Z,95419.00
2018-06-16T06:08:04.227Z,95421.00
2018-06-16T06:10:33.335Z,95415.00
2018-06-16T06:13:02.689Z,95416.00
2018-06-16T06:15:32.118Z,95414.00
2018-06-16T06:18:01.554Z,95413.00
2018-06-16T06:20:30.929Z,95412.00
2018-06-16T06:23:00.293Z,95410.00
2018-06-16T06:25:30.393Z,95411.00
2018-06-16T06:27:59.909Z,95420.00
2018-06-16T06:30:29.214Z,95413.00
2018-06-16T06:32:58.658Z,95411.00
2018-06-16T06:35:28.026Z,95414.00
2018-06-16T06:37:57.920Z,95418.00
2018-06-16T06:40:27.662Z,95407.00
2018-06-16T06:42:57.154Z,95418.00
2018-06-16T06:45:26.492Z,95415.00
2018-06-16T06:47:56.051Z,95414.00
2018-06-16T06:50:25.481Z,95411.00
2018-06-16T06:52:55.219Z,95416.00
2018-06-16T06:55:24.676Z,95424.00
2018-06-16T06:57:54.145Z,95419.00
2018-06-16T07:00:23.277Z,95412.00
2018-06-16T07:02:53.029Z,95418.00
2018-06-16T07:05:22.521Z,95416.00
2018-06-16T07:07:51.989Z,95407.00
2018-06-16T07:10:21.461Z,95410.00
2018-06-16T07:12:50.822Z,95413.00
2018-06-16T07:15:20.788Z,95417.00
2018-06-16T07:17:50.210Z,95420.00
2018-06-16T07:20:19.631Z,95416.00
2018-06-16T07:22:49.049Z,95418.00
2018-06-16T07:25:18.554Z,95417.00
2018-06-16T07:27:47.905Z,95425.00
2018-06-16T07:30:17.360Z,95421.00
2018-06-16T07:32:46.811Z,95422.00
2018-06-16T07:35:16.650Z,95417.00
2018-06-16T07:37:46.008Z,95419.00
2018-06-16T07:40:15.454Z,95420.00
2018-06-16T07:42:44.983Z,95418.00
2018-06-16T07:45:14.425Z,95420.00
2018-06-16T07:47:43.798Z,95421.00
2018-06-16T07:50:12.862Z,95417.00
2018-06-16T07:52:42.542Z,95414.00
2018-06-16T07:55:11.871Z,95421.00
2018-06-16T07:57:41.369Z,95412.00
2018-06-16T08:00:10.759Z,95419.00
2018-06-16T08:02:40.133Z,95416.00
2018-06-16T08:05:10.359Z,95414.00
2018-06-16T08:07:40.429Z,95412.00
2018-06-16T08:10:09.841Z,95405.00
2018-06-16T08:12:39.262Z,95410.00
2018-06-16T08:15:08.463Z,95407.00
2018-06-16T08:17:37.851Z,95409.00
2018-06-16T08:20:07.249Z,95409.00
2018-06-16T08:22:36.632Z,95411.00
2018-06-16T08:25:06.699Z,95406.00
2018-06-16T08:27:41.088Z,95405.00
2018-06-16T08:30:10.509Z,95406.00
2018-06-16T08:32:40.254Z,95413.00
2018-06-16T08:35:09.749Z,95416.00
2018-06-16T08:37:39.858Z,95412.00
2018-06-16T08:40:09.431Z,95410.00
2018-06-16T08:42:39.404Z,95410.00
2018-06-16T08:45:09.390Z,95397.00
2018-06-16T08:47:38.933Z,95404.00
2018-06-16T08:50:14.850Z,95404.00
2018-06-16T08:52:44.861Z,95414.00
2018-06-16T08:55:13.992Z,95405.00
2018-06-16T08:57:43.432Z,95410.00
2018-06-16T09:00:12.837Z,95405.00
2018-06-16T09:02:43.681Z,95401.00
2018-06-16T09:05:13.042Z,95395.00
2018-06-16T09:07:43.242Z,95405.00
2018-06-16T09:10:15.580Z,95400.00
2018-06-16T09:12:45.654Z,95403.00
2018-06-16T09:15:16.260Z,95402.00
2018-06-16T09:17:45.899Z,95403.00
2018-06-16T09:20:15.496Z,95397.00
2018-06-16T09:22:45.108Z,95404.00
2018-06-16T09:25:14.964Z,95408.00
2018-06-16T09:27:45.420Z,95410.00
2018-06-16T09:30:15.446Z,95402.00
2018-06-16T09:32:45.152Z,95406.00
2018-06-16T09:35:16.119Z,95398.00
2018-06-16T09:37:45.935Z,95393.00
2018-06-16T09:40:15.350Z,95400.00
2018-06-16T09:42:45.491Z,95393.00
2018-06-16T09:45:14.962Z,95398.00
2018-06-16T09:47:44.310Z,95400.00
2018-06-16T09:50:13.718Z,95396.00
2018-06-16T09:52:42.828Z,95390.00
2018-06-16T09:55:12.309Z,95391.00
2018-06-16T09:57:42.039Z,95395.00
2018-06-16T10:00:15.673Z,95393.00
2018-06-16T10:02:45.441Z,95394.00
2018-06-16T10:05:15.535Z,95394.00
2018-06-16T10:07:44.869Z,95400.00
2018-06-16T10:10:15.989Z,95395.00
2018-06-16T10:12:45.498Z,95393.00
2018-06-16T10:15:15.354Z,95390.00
2018-06-16T10:17:44.706Z,95391.00
2018-06-16T10:20:14.163Z,95388.00
2018-06-16T10:22:43.590Z,95392.00
2018-06-16T10:25:14.175Z,95382.00
2018-06-16T10:27:43.573Z,95387.00
2018-06-16T10:30:12.902Z,95387.00
2018-06-16T10:32:42.274Z,95389.00
2018-06-16T10:35:12.468Z,95393.00
2018-06-16T10:37:42.007Z,95387.00
2018-06-16T10:40:11.489Z,95386.00
2018-06-16T10:42:40.960Z,95382.00
2018-06-16T10:45:10.286Z,95391.00
2018-06-16T10:47:39.723Z,95387.00
2018-06-16T10:50:09.437Z,95384.00
2018-06-16T10:52:40.301Z,95388.00
2018-06-16T10:55:09.792Z,95387.00
2018-06-16T10:57:40.347Z,95380.00
2018-06-16T11:00:10.211Z,95378.00
2018-06-16T11:02:39.789Z,95374.00
2018-06-16T11:05:09.299Z,95378.00
2018-06-16T11:07:39.757Z,95388.00
2018-06-16T11:10:09.156Z,95374.00
2018-06-16T11:12:38.909Z,95372.00
2018-06-16T11:15:08.455Z,95373.00
2018-06-16T11:17:37.924Z,95367.00
2018-06-16T11:20:08.300Z,95361.00
2018-06-16T11:22:38.177Z,95366.00
2018-06-16T11:25:07.625Z,95367.00
2018-06-16T11:27:37.133Z,95359.00
2018-06-16T11:30:06.728Z,95349.00
2018-06-16T11:32:36.324Z,95348.00
2018-06-16T11:35:06.816Z,95343.00
2018-06-16T11:37:36.506Z,95349.00
2018-06-16T11:40:06.744Z,95347.00
2018-06-16T11:42:37.149Z,95342.00
2018-06-16T11:45:07.131Z,95343.00
2018-06-16T11:47:37.315Z,95335.00
2018-06-16T11:50:07.006Z,95328.00
2018-06-16T11:52:36.598Z,95335.00
2018-06-16T11:55:06.758Z,95330.00
2018-06-16T11:57:36.192Z,95330.00
2018-06-16T12:00:05.806Z,95321.00
2018-06-16T12:02:35.374Z,95324.00
2018-06-16T12:05:05.322Z,95324.00
2018-06-16T12:07:34.762Z,95332.00
2018-06-16T12:10:04.233Z,95329.00
2018-06-16T12:12:33.584Z,95318.00
2018-06-16T12:15:03.485Z,95317.00
2018-06-16T12:17:33.071Z,95319.00
2018-06-16T12:20:02.855Z,95320.00
2018-06-16T12:22:32.647Z,95324.00
2018-06-16T12:25:02.192Z,95308.00
2018-06-16T12:27:31.692Z,95319.00
2018-06-16T12:30:01.302Z,95312.00
2018-06-16T12:32:31.052Z,95325.00
2018-06-16T12:35:00.651Z,95320.00
2018-06-16T12:37:30.319Z,95319.00
2018-06-16T12:40:00.491Z,95321.00
2018-06-16T12:42:29.915Z,95322.00
2018-06-16T12:44:59.560Z,95317.00
2018-06-16T12:47:28.939Z,95320.00
2018-06-16T12:49:58.479Z,95323.00
2018-06-16T12:52:27.937Z,95332.00
2018-06-16T12:54:57.305Z,95336.00
2018-06-16T12:57:27.090Z,95329.00
2018-06-16T12:59:56.539Z,95325.00
2018-06-16T13:02:25.861Z,95330.00
2018-06-16T13:04:55.319Z,95335.00
2018-06-16T13:07:24.658Z,95328.00
2018-06-16T13:09:54.735Z,95331.00
2018-06-16T13:12:24.128Z,95328.00
2018-06-16T13:14:53.686Z,95322.00
2018-06-16T13:17:23.158Z,95318.00
2018-06-16T13:19:52.654Z,95321.00
2018-06-16T13:22:22.188Z,95323.00
2018-06-16T13:24:51.512Z,95319.00
2018-06-16T13:27:21.099Z,95314.00
2018-06-16T13:29:50.505Z,95304.00
2018-06-16T13:32:20.732Z,95305.00
2018-06-16T13:34:50.928Z,95301.00
2018-06-16T13:37:20.435Z,95306.00
2018-06-16T13:39:50.126Z,95299.00
2018-06-16T13:42:19.720Z,95298.00
2018-06-16T13:44:49.292Z,95304.00
2018-06-16T13:47:19.109Z,95306.00
2018-06-16T13:49:48.521Z,95303.00
2018-06-16T13:52:18.320Z,95301.00
2018-06-16T13:54:48.367Z,95297.00
2018-06-16T13:57:17.793Z,95299.00
2018-06-16T13:59:47.313Z,95302.00
2018-06-16T14:02:16.737Z,95300.00
2018-06-16T14:04:46.123Z,95295.00
2018-06-16T14:07:15.463Z,95298.00
2018-06-16T14:09:44.851Z,95295.00
2018-06-16T14:12:14.217Z,95289.00
2018-06-16T14:14:44.341Z,95288.00
2018-06-16T14:17:13.672Z,95291.00
2018-06-16T14:19:44.018Z,95291.00
2018-06-16T14:22:13.264Z,95290.00
2018-06-16T14:24:43.389Z,95284.00
2018-06-16T14:27:12.842Z,95293.00
2018-06-16T14:29:42.238Z,95290.00
2018-06-16T14:32:11.794Z,95290.00
2018-06-16T14:34:41.274Z,95291.00
2018-06-16T14:37:10.600Z,95291.00
2018-06-16T14:39:40.039Z,95287.00
2018-06-16T14:42:09.646Z,95283.00
2018-06-16T14:44:39.162Z,95278.00
2018-06-16T14:47:08.559Z,95291.00
2018-06-16T14:49:37.918Z,95278.00
2018-06-16T14:52:07.334Z,95279.00
2018-06-16T14:54:36.988Z,95277.00
2018-06-16T14:57:06.645Z,95276.00
2018-06-16T14:59:36.218Z,95281.00
2018-06-16T15:02:05.851Z,95279.00
2018-06-16T15:04:35.388Z,95278.00
2018-06-16T15:07:05.379Z,95277.00
2018-06-16T15:09:35.583Z,95278.00
2018-06-16T15:12:05.031Z,95283.00
2018-06-16T15:14:34.551Z,95281.00
2018-06-16T15:17:04.031Z,95284.00
2018-06-16T15:19:33.755Z,95290.00
2018-06-16T15:22:03.277Z,95284.00
2018-06-16T15:24:32.539Z,95276.00
2018-06-16T15:27:01.916Z,95288.00
2018-06-16T15:29:31.346Z,95276.00
2018-06-16T15:32:00.695Z,95281.00
2018-06-16T15:34:30.192Z,95284.00
2018-06-16T15:37:00.372Z,95285.00
2018-06-16T15:39:30.060Z,95292.00
2018-06-16T15:41:59.598Z,95289.00
2018-06-16T15:44:28.978Z,95285.00
2018-06-16T15:46:58.336Z,95286.00
2018-06-16T15:49:27.397Z,95280.00
2018-06-16T15:51:56.731Z,95275.00
2018-06-16T15:54:26.752Z,95288.00
2018-06-16T15:56:56.126Z,95281.00
2018-06-16T15:59:25.614Z,95274.00
2018-06-16T16:01:54.994Z,95267.00
2018-06-16T16:04:24.362Z,95281.00
2018-06-16T16:06:53.724Z,95281.00
2018-06-16T16:09:23.194Z,95267.00
2018-06-16T16:11:53.376Z,95272.00
2018-06-16T16:14:22.474Z,95266.00
2018-06-16T16:16:52.216Z,95267.00
2018-06-16T16:19:21.622Z,95273.00
2018-06-16T16:21:51.461Z,95271.00
2018-06-16T16:24:20.811Z,95275.00
2018-06-16T16:26:50.220Z,95274.00
2018-06-16T16:29:20.788Z,95281.00
2018-06-16T16:31:50.389Z,95274.00
2018-06-16T16:34:19.706Z,95285.00
2018-06-16T16:36:49.120Z,95274.00
2018-06-16T16:39:18.501Z,95274.00
2018-06-16T16:41:49.019Z,95280.00
2018-06-16T16:44:18.692Z,95280.00
2018-06-16T16:46:48.090Z,95278.00
2018-06-16T16:49:17.440Z,95281.00
2018-06-16T16:51:46.806Z,95281.00
2018-06-16T16:54:16.392Z,95283.00
2018-06-16T16:56:47.199Z,95271.00
2018-06-16T16:59:16.748Z,95284.00
2018-06-16T17:01:47.140Z,95284.00
2018-06-16T17:04:17.778Z,95290.00
2018-06-16T17:06:47.332Z,95288.00
2018-06-16T17:09:16.850Z,95283.00
2018-06-16T17:11:46.158Z,95285.00
2018-06-16T17:14:16.087Z,95283.00
2018-06-16T17:16:45.800Z,95281.00
2018-06-16T17:19:16.209Z,95279.00
2018-06-16T17:21:46.955Z,95275.00
2018-06-16T17:24:18.226Z,95286.00
2018-06-16T17:26:47.640Z,95284.00
2018-06-16T17:29:17.478Z,95282.00
2018-06-16T17:31:46.983Z,95284.00
2018-06-16T17:34:16.571Z,95282.00
2018-06-16T17:36:46.240Z,95290.00
2018-06-16T17:39:15.699Z,95287.00
2018-06-16T17:41:45.192Z,95284.00
2018-06-16T17:44:17.519Z,95290.00
2018-06-16T17:46:46.940Z,95290.00
2018-06-16T17:49:25.286Z,95298.00
2018-06-16T17:51:55.001Z,95293.00
2018-06-16T17:54:26.869Z,95293.00
2018-06-16T17:56:56.257Z,95301.00
2018-06-16T17:59:25.755Z,95298.00
2018-06-16T18:01:55.376Z,95304.00
2018-06-16T18:04:24.829Z,95306.00
2018-06-16T18:06:54.347Z,95308.00
2018-06-16T18:09:23.880Z,95302.00
2018-06-16T18:11:53.437Z,95305.00
2018-06-16T18:14:23.407Z,95312.00
2018-06-16T18:16:53.701Z,95306.00
2018-06-16T18:19:25.395Z,95310.00
2018-06-16T18:21:56.161Z,95306.00
2018-06-16T18:24:26.348Z,95305.00
2018-06-16T18:26:56.022Z,95310.00
2018-06-16T18:29:27.016Z,95311.00
2018-06-16T18:31:56.476Z,95318.00
2018-06-16T18:34:25.903Z,95316.00
2018-06-16T18:36:55.772Z,95305.00
2018-06-16T18:39:25.238Z,95314.00
2018-06-16T18:41:54.799Z,95315.00
2018-06-16T18:44:24.284Z,95317.00
2018-06-16T18:46:55.476Z,95312.00
2018-06-16T18:49:25.160Z,95318.00
2018-06-16T18:51:54.542Z,95320.00
2018-06-16T18:54:24.394Z,95326.00
2018-06-16T18:56:54.690Z,95330.00
2018-06-16T18:59:24.179Z,95336.00
2018-06-16T19:01:53.546Z,95337.00
2018-06-16T19:04:23.030Z,95333.00
2018-06-16T19:06:52.529Z,95340.00
2018-06-16T19:09:21.950Z,95330.00
2018-06-16T19:11:51.395Z,95337.00
2018-06-16T19:14:20.771Z,95340.00
2018-06-16T19:16:50.180Z,95341.00
2018-06-16T19:19:19.699Z,95342.00
2018-06-16T19:21:49.149Z,95343.00
2018-06-16T19:24:18.519Z,95348.00
2018-06-16T19:26:47.955Z,95342.00
2018-06-16T19:29:17.043Z,95347.00
2018-06-16T19:31:46.070Z,95346.00
2018-06-16T19:34:15.381Z,95356.00
2018-06-16T19:36:44.830Z,95352.00
2018-06-16T19:39:14.282Z,95363.00
2018-06-16T19:41:43.590Z,95353.00
2018-06-16T19:44:13.014Z,95363.00
2018-06-16T19:46:42.457Z,95363.00
2018-06-16T19:49:12.126Z,95369.00
2018-06-16T19:51:41.636Z,95371.00
2018-06-16T19:54:11.158Z,95375.00
2018-06-16T19:56:40.504Z,95366.00
2018-06-16T19:59:09.915Z,95374.00
2018-06-16T20:01:39.553Z,95371.00
2018-06-16T20:04:09.086Z,95361.00
2018-06-16T20:06:38.508Z,95372.00
2018-06-16T20:09:08.612Z,95382.00
2018-06-16T20:11:38.846Z,95375.00
2018-06-16T20:14:08.772Z,95378.00
2018-06-16T20:16:38.290Z,95380.00
2018-06-16T20:19:07.817Z,95380.00
2018-06-16T20:21:38.322Z,95385.00
2018-06-16T20:24:07.924Z,95389.00
2018-06-16T20:26:37.607Z,95388.00
2018-06-16T20:29:07.021Z,95396.00
2018-06-16T20:31:37.154Z,95389.00
2018-06-16T20:34:07.056Z,95398.00
2018-06-16T20:36:36.785Z,95397.00
2018-06-16T20:39:07.881Z,95395.00
2018-06-16T20:41:37.759Z,95387.00
2018-06-16T20:44:07.537Z,95389.00
2018-06-16T20:46:37.497Z,95392.00
2018-06-16T20:49:07.026Z,95397.00
2018-06-16T20:51:36.463Z,95393.00
2018-06-16T20:54:06.370Z,95395.00
2018-06-16T20:56:36.179Z,95405.00
2018-06-16T20:59:05.632Z,95399.00
2018-06-16T21:01:35.160Z,95385.00
2018-06-16T21:04:05.287Z,95395.00
2018-06-16T21:06:34.784Z,95391.00
2018-06-16T21:09:06.642Z,95395.00
2018-06-16T21:11:36.877Z,95394.00
2018-06-16T21:14:12.521Z,95406.00
2018-06-16T21:16:41.974Z,95404.00
2018-06-16T21:19:13.060Z,95403.00
2018-06-16T21:21:42.548Z,95408.00
2018-06-16T21:24:11.927Z,95405.00
2018-06-16T21:26:41.868Z,95406.00
2018-06-16T21:29:11.756Z,95409.00
2018-06-16T21:31:40.760Z,95411.00
2018-06-16T21:34:10.156Z,95410.00
2018-06-16T21:36:39.562Z,95408.00
2018-06-16T21:39:10.046Z,95409.00
2018-06-16T21:41:39.674Z,95413.00
2018-06-16T21:44:09.104Z,95404.00
2018-06-16T21:46:38.520Z,95411.00
2018-06-16T21:49:07.869Z,95409.00
2018-06-16T21:51:37.380Z,95406.00
2018-06-16T21:54:06.887Z,95411.00
2018-06-16T21:56:36.259Z,95408.00
2018-06-16T21:59:06.434Z,95411.00
2018-06-16T22:01:37.010Z,95408.00
2018-06-16T22:04:07.050Z,95408.00
2018-06-16T22:06:36.121Z,95405.00
2018-06-16T22:09:09.459Z,95416.00
2018-06-16T22:11:38.894Z,95413.00
2018-06-16T22:14:08.369Z,95420.00
2018-06-16T22:16:37.727Z,95418.00
2018-06-16T22:19:07.801Z,95417.00
2018-06-16T22:21:37.222Z,95418.00
2018-06-16T22:24:06.691Z,95409.00
2018-06-16T22:26:36.179Z,95413.00
2018-06-16T22:29:05.625Z,95416.00
2018-06-16T22:31:34.979Z,95418.00
2018-06-16T22:34:04.411Z,95421.00
2018-06-16T22:36:33.874Z,95423.00
2018-06-16T22:39:03.404Z,95416.00
2018-06-16T22:41:32.821Z,95423.00
2018-06-16T22:44:02.218Z,95420.00
2018-06-16T22:46:31.570Z,95413.00
2018-06-16T22:49:01.100Z,95424.00
2018-06-16T22:51:30.450Z,95417.00
2018-06-16T22:53:59.880Z,95418.00
2018-06-16T22:56:29.196Z,95415.00
2018-06-16T22:58:58.610Z,95414.00
2018-06-16T23:01:27.989Z,95413.00
2018-06-16T23:03:57.441Z,95416.00
2018-06-16T23:06:26.787Z,95417.00
2018-06-16T23:08:56.191Z,95417.00
2018-06-16T23:11:25.539Z,95425.00
2018-06-16T23:13:54.993Z,95421.00
2018-06-16T23:16:24.392Z,95418.00
2018-06-16T23:18:53.761Z,95424.00
2018-06-16T23:21:23.092Z,95422.00
2018-06-16T23:23:52.548Z,95417.00
2018-06-16T23:26:21.908Z,95421.00
2018-06-16T23:28:51.251Z,95417.00
2018-06-16T23:31:20.635Z,95416.00
2018-06-16T23:33:50.003Z,95418.00
2018-06-16T23:36:19.507Z,95429.00
2018-06-16T23:38:48.861Z,95417.00
2018-06-16T23:41:18.355Z,95426.00
2018-06-16T23:43:47.385Z,95427.00
2018-06-16T23:46:16.773Z,95430.00
2018-06-16T23:48:46.138Z,95424.00
2018-06-16T23:51:15.953Z,95420.00
2018-06-16T23:53:45.343Z,95427.00
2018-06-16T23:56:14.677Z,95428.00
2018-06-16T23:58:44.495Z,95425.00
